Terminal Aerodrome Forecast
Issued by NWS

Home | Current Version | Previous Version | Text Only | Print | Product List | Glossary On
Versions: 1 2 3 4 5 6 7 8 9 10 11 12
000
FTUS45 KRIW 271737
TAFRKS
TAF
KRKS 271737Z 2718/2818 14013G20KT P6SM SCT100
     FM272200 08015G25KT P6SM VCSH SCT070 BKN110
     FM280200 08015G25KT P6SM SCT040 OVC080
     FM280700 07010KT P6SM VCSH BKN060=

USA.gov is the U.S. government's official web portal to all federal, state and local government web resources and services.